Time;durP1;ratioP1;P1;durP2;ratioP2;P2;SDS_P1;SDS_P2;PMS_P1;PMS_P2;Temp;Humidity;BMP_temperature;BMP_pressure;BME280_temperature;BME280_humidity;BME280_pressure;Samples;Min_cycle;Max_cycle;Signal;HPM_P1;HPM_P2
2023/05/21 00:00:12;;;;;;;0.00;0.00;;;;;;;17.33;53.19;102045.13;5048974;28;20318;-78
2023/05/21 00:02:39;;;;;;;0.00;0.00;;;;;;;17.35;53.06;102046.84;5051197;28;20025;-78
2023/05/21 00:05:10;;;;;;;0.10;0.10;;;;;;;17.37;52.84;102047.69;5047382;28;20045;-77
2023/05/21 00:07:36;;;;;;;0.03;0.03;;;;;;;17.39;53.22;102045.81;5036495;28;20030;-78
2023/05/21 00:10:02;;;;;;;0.10;0.10;;;;;;;17.40;53.64;102044.91;5047624;28;20033;-77
2023/05/21 00:12:28;;;;;;;0.05;0.05;;;;;;;17.42;53.09;102042.16;5047061;28;20033;-78
2023/05/21 00:14:54;;;;;;;0.10;0.10;;;;;;;17.42;53.26;102034.13;5049983;28;20029;-78
2023/05/21 00:17:20;;;;;;;0.03;0.03;;;;;;;17.43;53.34;102039.47;5057494;28;20036;-78
2023/05/21 00:19:48;;;;;;;0.43;0.20;;;;;;;17.45;52.96;102037.59;5042188;28;20022;-77
2023/05/21 00:22:15;;;;;;;0.00;0.00;;;;;;;17.46;53.00;102034.00;5038077;28;20025;-78
2023/05/21 00:24:43;;;;;;;0.10;0.10;;;;;;;17.46;53.18;102031.31;5039259;28;20049;-80
2023/05/21 00:27:10;;;;;;;0.10;0.10;;;;;;;17.45;53.20;102026.88;5039993;28;20041;-78
2023/05/21 00:29:36;;;;;;;0.10;0.10;;;;;;;17.45;53.18;102031.38;5040528;28;20041;-78
2023/05/21 00:32:02;;;;;;;0.00;0.00;;;;;;;17.46;53.27;102020.59;5044872;28;20029;-78
2023/05/21 00:34:28;;;;;;;0.08;0.08;;;;;;;17.48;53.39;102022.38;5043027;28;20037;-79
2023/05/21 00:36:54;;;;;;;0.00;0.00;;;;;;;17.51;53.66;102024.94;5053912;28;20017;-77
2023/05/21 00:39:21;;;;;;;0.03;0.03;;;;;;;17.53;53.52;102020.41;5048402;28;20025;-76
2023/05/21 00:41:47;;;;;;;0.00;0.00;;;;;;;17.54;53.48;102023.03;5046088;28;20044;-77
2023/05/21 00:44:15;;;;;;;0.00;0.00;;;;;;;17.54;53.81;102015.00;5046627;28;20077;-78
2023/05/21 00:46:43;;;;;;;0.10;0.10;;;;;;;17.56;53.57;102023.03;5047679;28;20032;-77
2023/05/21 00:49:10;;;;;;;0.00;0.00;;;;;;;17.58;53.45;102016.69;5045189;28;20584;-77
2023/05/21 00:51:36;;;;;;;0.10;0.10;;;;;;;17.60;53.34;102014.81;5046908;28;20084;-77
2023/05/21 00:54:02;;;;;;;0.05;0.05;;;;;;;17.63;53.07;102013.84;5047761;28;20033;-78
2023/05/21 00:56:29;;;;;;;0.00;0.00;;;;;;;17.63;53.23;102021.88;5044762;28;20021;-77
2023/05/21 00:58:57;;;;;;;0.10;0.10;;;;;;;17.62;53.85;102010.28;5046717;28;20025;-77
2023/05/21 01:01:24;;;;;;;0.10;0.10;;;;;;;17.63;53.65;102011.16;5046482;28;20022;-77
2023/05/21 01:03:56;;;;;;;0.10;0.10;;;;;;;17.65;53.88;102012.00;5045439;28;20033;-78
2023/05/21 01:06:22;;;;;;;0.10;0.10;;;;;;;17.67;53.63;102004.81;5047417;28;20076;-78
2023/05/21 01:08:49;;;;;;;0.40;0.40;;;;;;;17.69;53.83;102010.97;5046011;28;20029;-79
2023/05/21 01:11:17;;;;;;;0.10;0.10;;;;;;;17.71;53.57;102006.44;5044764;28;20025;-78
2023/05/21 01:13:44;;;;;;;0.10;0.10;;;;;;;17.73;53.82;102001.03;5046787;28;20030;-78
2023/05/21 01:16:12;;;;;;;0.05;0.05;;;;;;;17.73;53.99;101998.34;5034701;28;20029;-78
2023/05/21 01:18:38;;;;;;;0.10;0.10;;;;;;;17.72;54.06;102001.94;5047176;28;20048;-79
2023/05/21 01:21:06;;;;;;;0.35;0.35;;;;;;;17.72;54.07;101997.50;5046560;28;20025;-77
2023/05/21 01:23:33;;;;;;;0.10;0.10;;;;;;;17.73;55.01;101999.25;5046570;28;20510;-78
2023/05/21 01:25:59;;;;;;;0.08;0.08;;;;;;;17.73;54.41;102001.94;5047141;28;20678;-78
2023/05/21 01:28:25;;;;;;;0.00;0.00;;;;;;;17.75;54.23;101996.50;5042923;28;20033;-78
2023/05/21 01:30:51;;;;;;;0.00;0.00;;;;;;;17.74;54.52;101992.94;5045171;28;20052;-78
2023/05/21 01:33:32;;;;;;;0.00;0.00;;;;;;;17.76;54.11;101983.06;5047425;28;20128;-78
2023/05/21 01:36:22;;;;;;;0.10;0.10;;;;;;;17.83;54.00;101988.22;5047012;28;20094;-78
2023/05/21 01:38:59;;;;;;;0.10;0.10;;;;;;;17.76;54.37;101988.41;5047064;28;20045;-77
2023/05/21 01:41:28;;;;;;;0.10;0.10;;;;;;;17.71;54.49;101990.38;5044358;28;20017;-80
2023/05/21 01:43:56;;;;;;;0.00;0.00;;;;;;;17.70;54.57;101999.31;5047780;28;20025;-77
2023/05/21 01:46:26;;;;;;;0.10;0.10;;;;;;;17.70;54.64;101993.97;5047367;28;20021;-77
2023/05/21 01:48:53;;;;;;;0.10;0.10;;;;;;;17.71;54.71;102000.22;5047604;28;20018;-77
2023/05/21 01:51:20;;;;;;;0.08;0.08;;;;;;;17.73;55.00;101998.34;5046482;28;20051;-77
2023/05/21 01:53:46;;;;;;;0.10;0.10;;;;;;;17.73;55.13;101998.34;5050117;28;20598;-77
2023/05/21 01:56:14;;;;;;;0.10;0.10;;;;;;;17.74;54.75;101994.75;5044482;28;20499;-78
2023/05/21 01:58:40;;;;;;;0.10;0.10;;;;;;;17.74;54.83;102000.13;5049726;28;20029;-78
2023/05/21 02:01:07;;;;;;;0.10;0.10;;;;;;;17.75;54.41;101997.38;5048949;28;20033;-78
2023/05/21 02:03:33;;;;;;;0.00;0.00;;;;;;;17.77;54.63;101995.53;5052450;28;20021;-78
2023/05/21 02:05:59;;;;;;;0.00;0.00;;;;;;;17.77;55.21;101994.66;5050672;28;20022;-79
2023/05/21 02:08:26;;;;;;;0.10;0.10;;;;;;;17.77;54.47;101998.22;5051572;28;20037;-80
2023/05/21 02:10:52;;;;;;;0.00;0.00;;;;;;;17.77;54.57;102000.91;5048831;28;20031;-78
2023/05/21 02:13:21;;;;;;;0.10;0.10;;;;;;;17.76;54.79;101996.47;5051500;28;20025;-77
2023/05/21 02:15:47;;;;;;;0.00;0.00;;;;;;;17.78;54.76;101993.72;5050979;28;20028;-77
2023/05/21 02:18:15;;;;;;;0.05;0.05;;;;;;;17.78;54.71;101996.41;5050837;28;20017;-78
2023/05/21 02:20:42;;;;;;;0.00;0.00;;;;;;;17.77;54.47;101990.16;5050721;28;20043;-80
2023/05/21 02:23:08;;;;;;;0.08;0.08;;;;;;;17.75;54.54;101991.16;5050693;28;20076;-79
2023/05/21 02:25:34;;;;;;;0.10;0.10;;;;;;;17.75;54.65;101991.16;5048589;28;20053;-79
2023/05/21 02:28:01;;;;;;;0.10;0.10;;;;;;;17.72;54.62;101992.13;5050630;28;20033;-78
2023/05/21 02:30:27;;;;;;;0.10;0.10;;;;;;;17.73;54.87;101982.28;5048596;28;20037;-79
2023/05/21 02:32:57;;;;;;;0.10;0.10;;;;;;;17.74;54.70;101984.91;5047591;28;20052;-79
2023/05/21 02:35:24;;;;;;;0.00;0.00;;;;;;;17.74;54.71;101984.91;5048025;28;20125;-77
2023/05/21 02:37:50;;;;;;;0.10;0.10;;;;;;;17.73;54.70;101991.22;5046469;28;20075;-78
2023/05/21 02:40:16;;;;;;;0.10;0.10;;;;;;;17.74;54.59;101994.75;5040051;28;20052;-78
2023/05/21 02:42:42;;;;;;;0.00;0.00;;;;;;;17.73;54.71;101988.53;5046181;28;20032;-79
2023/05/21 02:45:10;;;;;;;0.10;0.10;;;;;;;17.72;54.55;101989.44;5051585;28;20052;-79
2023/05/21 02:47:37;;;;;;;0.10;0.10;;;;;;;17.72;54.73;101992.13;5051208;28;20025;-78
2023/05/21 02:50:05;;;;;;;0.10;0.10;;;;;;;17.70;55.13;101991.28;5050355;28;20036;-78
2023/05/21 02:52:31;;;;;;;0.00;0.00;;;;;;;17.70;54.77;101990.44;5045701;28;20030;-77
2023/05/21 02:54:57;;;;;;;0.10;0.10;;;;;;;17.71;54.73;101992.19;5049389;28;20048;-78
2023/05/21 02:57:23;;;;;;;0.30;0.30;;;;;;;17.72;55.11;101992.13;5050280;28;20048;-78
2023/05/21 02:59:50;;;;;;;0.00;0.00;;;;;;;17.72;54.93;101986.75;5050331;28;20032;-78
2023/05/21 03:02:16;;;;;;;0.10;0.10;;;;;;;17.73;55.21;101988.53;5050230;28;20151;-79
2023/05/21 03:04:45;;;;;;;0.00;0.00;;;;;;;17.75;55.04;101986.66;5049740;28;20024;-79
2023/05/21 03:07:14;;;;;;;0.10;0.10;;;;;;;17.76;54.88;101988.41;5047544;28;20044;-77
2023/05/21 03:09:41;;;;;;;0.10;0.10;;;;;;;17.75;54.89;101991.16;5052884;28;20020;-79
2023/05/21 03:12:08;;;;;;;0.03;0.03;;;;;;;17.72;55.23;101985.88;5054800;28;20405;-78
2023/05/21 03:14:34;;;;;;;0.10;0.10;;;;;;;17.72;55.17;101981.41;5054929;28;20097;-79
2023/05/21 03:17:04;;;;;;;0.00;0.00;;;;;;;17.71;54.79;101984.16;5053698;28;20038;-79
2023/05/21 03:19:35;;;;;;;0.00;0.00;;;;;;;17.69;55.08;101984.16;5054030;28;20044;-78
2023/05/21 03:22:02;;;;;;;0.10;0.10;;;;;;;17.68;55.19;101979.72;5051636;28;20870;-78
2023/05/21 03:24:31;;;;;;;0.08;0.08;;;;;;;17.68;54.97;101974.38;5053951;28;20032;-78
2023/05/21 03:26:58;;;;;;;0.60;0.60;;;;;;;17.66;55.32;101976.25;5053432;28;20033;-78
2023/05/21 03:29:24;;;;;;;0.10;0.10;;;;;;;17.67;55.44;101975.31;5053167;28;20053;-77
2023/05/21 03:31:52;;;;;;;0.10;0.10;;;;;;;17.67;54.73;101983.34;5053794;28;20097;-79
2023/05/21 03:34:19;;;;;;;0.00;0.00;;;;;;;17.65;55.20;101978.97;5053425;28;20089;-78
2023/05/21 03:36:46;;;;;;;0.00;0.00;;;;;;;17.65;55.15;101979.84;5051262;28;20052;-77
2023/05/21 03:39:12;;;;;;;0.10;0.10;;;;;;;17.64;55.17;101978.09;5052146;28;20055;-78
2023/05/21 03:41:38;;;;;;;0.47;0.47;;;;;;;17.62;55.35;101975.47;5053199;28;20048;-78
2023/05/21 03:44:05;;;;;;;0.03;0.03;;;;;;;17.61;55.27;101976.38;5052739;28;20029;-78
2023/05/21 03:46:32;;;;;;;0.10;0.10;;;;;;;17.61;55.52;101980.88;5045646;28;20029;-79
2023/05/21 03:48:58;;;;;;;0.10;0.10;;;;;;;17.61;55.31;101972.84;5047713;28;20034;-78
2023/05/21 03:51:24;;;;;;;0.10;0.10;;;;;;;17.60;55.30;101981.78;5046128;28;20025;-78
2023/05/21 03:53:53;;;;;;;0.00;0.00;;;;;;;17.61;55.23;101976.38;5045148;28;20032;-78
2023/05/21 03:56:20;;;;;;;0.00;0.00;;;;;;;17.58;55.27;101978.28;5048023;28;20029;-79
2023/05/21 03:58:46;;;;;;;0.10;0.10;;;;;;;17.58;55.14;101980.94;5040391;28;20022;-77
2023/05/21 04:01:12;;;;;;;0.10;0.10;;;;;;;17.57;55.31;101984.56;5044273;28;20022;-79
2023/05/21 04:03:38;;;;;;;0.05;0.05;;;;;;;17.58;55.11;101970.22;5044430;28;20100;-79
2023/05/21 04:06:05;;;;;;;0.00;0.00;;;;;;;17.56;55.09;101970.28;5047317;28;20040;-79
2023/05/21 04:08:31;;;;;;;0.10;0.10;;;;;;;17.55;55.49;101968.53;5039206;28;20030;-79
2023/05/21 04:10:57;;;;;;;0.05;0.05;;;;;;;17.54;55.41;101965.91;5049184;28;20041;-79
2023/05/21 04:13:24;;;;;;;0.10;0.10;;;;;;;17.53;55.43;101970.38;5051866;28;20272;-79
2023/05/21 04:15:50;;;;;;;0.00;0.00;;;;;;;17.53;55.32;101966.81;5048367;28;20022;-77
2023/05/21 04:18:16;;;;;;;0.00;0.00;;;;;;;17.53;55.34;101969.50;5048660;28;20021;-78
2023/05/21 04:20:42;;;;;;;0.10;0.10;;;;;;;17.53;55.23;101969.50;5052106;28;20025;-78
2023/05/21 04:23:09;;;;;;;1.20;0.43;;;;;;;17.53;55.31;101972.19;5039654;28;20025;-78
2023/05/21 04:25:37;;;;;;;0.00;0.00;;;;;;;17.53;55.66;101969.50;5039345;28;20056;-78
2023/05/21 04:28:03;;;;;;;0.65;0.28;;;;;;;17.52;55.80;101973.09;5051139;28;20026;-78
2023/05/21 04:30:29;;;;;;;0.10;0.10;;;;;;;17.53;55.43;101974.88;5046058;28;20018;-78
2023/05/21 04:32:56;;;;;;;0.10;0.10;;;;;;;17.54;55.55;101972.13;5052867;28;20033;-78
2023/05/21 04:35:22;;;;;;;0.00;0.00;;;;;;;17.55;55.80;101973.03;5051707;28;20037;-77
2023/05/21 04:37:49;;;;;;;0.08;0.08;;;;;;;17.57;55.59;101976.50;5052420;28;20036;-78
2023/05/21 04:40:17;;;;;;;0.10;0.10;;;;;;;17.54;55.66;101976.63;5052621;28;20009;-78
2023/05/21 04:42:45;;;;;;;0.10;0.10;;;;;;;17.54;55.71;101972.13;5045308;28;20037;-78
2023/05/21 04:45:11;;;;;;;0.00;0.00;;;;;;;17.55;55.66;101975.69;5049235;28;20064;-78
2023/05/21 04:47:38;;;;;;;0.20;0.20;;;;;;;17.55;55.94;101971.22;5049820;28;20028;-78
2023/05/21 04:50:05;;;;;;;0.00;0.00;;;;;;;17.57;55.86;101971.16;5048714;28;20391;-78
2023/05/21 04:52:31;;;;;;;0.10;0.10;;;;;;;17.63;55.86;101970.97;5047883;28;20045;-78
2023/05/21 04:54:57;;;;;;;0.00;0.00;;;;;;;17.61;55.81;101972.84;5050703;28;20033;-78
2023/05/21 04:57:23;;;;;;;0.00;0.00;;;;;;;17.62;56.21;101969.22;5053108;28;20073;-78
2023/05/21 04:59:49;;;;;;;0.10;0.10;;;;;;;17.66;56.25;101976.25;5044685;28;20021;-79
2023/05/21 05:02:16;;;;;;;0.10;0.10;;;;;;;17.69;56.02;101970.75;5051181;28;20044;-79
2023/05/21 05:04:42;;;;;;;0.10;0.10;;;;;;;17.78;55.88;101967.81;5052293;28;20052;-77
2023/05/21 05:07:09;;;;;;;0.00;0.00;;;;;;;17.82;55.84;101975.72;5049555;28;20584;-79
2023/05/21 05:09:35;;;;;;;0.10;0.10;;;;;;;17.81;55.93;101974.88;5051833;28;20057;-78
2023/05/21 05:12:01;;;;;;;0.10;0.10;;;;;;;17.83;56.35;101974.81;5052175;28;20017;-78
2023/05/21 05:14:27;;;;;;;0.10;0.10;;;;;;;17.81;56.48;101969.50;5052385;28;20434;-78
2023/05/21 05:16:58;;;;;;;0.10;0.10;;;;;;;17.81;57.19;101971.28;5035745;28;20018;-78
2023/05/21 05:19:25;;;;;;;0.10;0.10;;;;;;;17.84;56.28;101973.91;5052381;28;20039;-79
2023/05/21 05:21:51;;;;;;;0.00;0.00;;;;;;;17.83;56.86;101967.66;5049714;28;20029;-79
2023/05/21 05:24:17;;;;;;;0.00;0.00;;;;;;;17.87;56.81;101979.13;5044794;28;20032;-79
2023/05/21 05:26:44;;;;;;;0.00;0.00;;;;;;;17.89;56.68;101966.56;5052396;28;20017;-78
2023/05/21 05:29:10;;;;;;;0.35;0.35;;;;;;;17.91;56.39;101959.38;5050605;28;20029;-77
2023/05/21 05:31:36;;;;;;;0.10;0.10;;;;;;;17.92;56.70;101969.16;5049945;28;20109;-79
2023/05/21 05:34:03;;;;;;;0.10;0.10;;;;;;;17.92;56.87;101964.66;5049191;28;20052;-79
2023/05/21 05:36:30;;;;;;;0.00;0.00;;;;;;;17.94;57.14;101964.66;5045068;28;20044;-79
2023/05/21 05:38:56;;;;;;;0.10;0.10;;;;;;;17.97;56.74;101963.66;5050820;28;20014;-78
2023/05/21 05:41:22;;;;;;;0.20;0.20;;;;;;;17.99;57.01;101957.31;5050910;28;20029;-79
2023/05/21 05:43:48;;;;;;;0.20;0.20;;;;;;;18.03;57.36;101959.00;5051387;28;20025;-78
2023/05/21 05:46:14;;;;;;;0.00;0.00;;;;;;;18.08;56.82;101946.31;5050694;28;20037;-78
2023/05/21 05:48:40;;;;;;;0.10;0.10;;;;;;;18.10;57.91;101951.59;5050335;28;20109;-79
2023/05/21 05:51:07;;;;;;;0.00;0.00;;;;;;;18.15;57.27;101949.63;5048423;28;20044;-79
2023/05/21 05:53:33;;;;;;;0.00;0.00;;;;;;;18.19;57.24;101943.22;5035865;28;20022;-77
2023/05/21 05:55:59;;;;;;;0.00;0.00;;;;;;;18.25;56.91;101947.53;5029814;28;20041;-77
2023/05/21 05:58:25;;;;;;;0.10;0.10;;;;;;;18.29;56.92;101946.47;5036967;28;20029;-79
2023/05/21 06:00:51;;;;;;;0.20;0.20;;;;;;;18.34;57.27;101952.56;5043949;28;20029;-78
2023/05/21 06:03:17;;;;;;;0.10;0.10;;;;;;;18.38;57.21;101948.84;5044307;28;20033;-80
2023/05/21 06:05:43;;;;;;;0.88;0.88;;;;;;;18.44;57.10;101953.09;5042279;28;20037;-80
2023/05/21 06:08:09;;;;;;;0.08;0.08;;;;;;;18.49;57.06;101951.16;5035513;28;20041;-80
2023/05/21 06:10:36;;;;;;;0.03;0.03;;;;;;;18.56;57.29;101952.66;5033195;28;20484;-79
2023/05/21 06:13:02;;;;;;;0.10;0.10;;;;;;;18.64;57.15;101959.56;5042237;28;20047;-78
2023/05/21 06:15:29;;;;;;;0.10;0.10;;;;;;;18.68;57.20;101951.38;5027003;28;20026;-78
2023/05/21 06:17:55;;;;;;;0.65;0.65;;;;;;;18.73;57.05;101949.38;5036383;28;20089;-78
2023/05/21 06:20:21;;;;;;;0.10;0.10;;;;;;;18.79;57.08;101942.94;5040158;28;20038;-79
2023/05/21 06:22:47;;;;;;;0.10;0.10;;;;;;;18.84;56.84;101951.69;5042558;28;20030;-79
2023/05/21 06:25:14;;;;;;;0.10;0.10;;;;;;;18.90;57.12;101958.63;5043032;28;20038;-79
2023/05/21 06:27:40;;;;;;;0.20;0.20;;;;;;;18.94;56.83;101949.56;5037624;28;20056;-80
2023/05/21 06:30:07;;;;;;;1.17;0.85;;;;;;;18.96;57.11;101953.06;5026690;28;20056;-78
2023/05/21 06:32:33;;;;;;;0.08;0.08;;;;;;;19.01;56.87;101953.75;5041861;28;20026;-80
2023/05/21 06:35:00;;;;;;;0.10;0.10;;;;;;;19.02;56.75;101955.50;5043954;28;20132;-80
2023/05/21 06:37:26;;;;;;;0.55;0.40;;;;;;;19.06;57.29;101964.31;5040817;28;20029;-79
2023/05/21 06:39:52;;;;;;;0.10;0.10;;;;;;;19.09;57.05;101961.53;5043004;28;20052;-80
2023/05/21 06:42:18;;;;;;;0.10;0.10;;;;;;;19.12;57.24;101960.53;5046367;28;20025;-79
2023/05/21 06:44:44;;;;;;;0.32;0.32;;;;;;;19.16;57.33;101956.78;5051395;28;20030;-80
2023/05/21 06:47:10;;;;;;;0.10;0.10;;;;;;;19.26;57.23;101958.19;5044585;28;20033;-78
2023/05/21 06:49:36;;;;;;;0.45;0.40;;;;;;;19.36;57.20;101956.88;5047566;28;20041;-78
2023/05/21 06:52:03;;;;;;;0.10;0.10;;;;;;;19.45;56.85;101955.66;5038011;28;20042;-79
2023/05/21 06:54:29;;;;;;;0.73;0.45;;;;;;;19.50;57.10;101950.09;5040524;28;20055;-79
2023/05/21 06:56:55;;;;;;;0.10;0.10;;;;;;;19.55;56.86;101948.09;5044599;28;20014;-79
2023/05/21 06:59:21;;;;;;;0.65;0.65;;;;;;;19.61;56.70;101947.84;5044395;28;20048;-79
2023/05/21 07:01:47;;;;;;;0.10;0.10;;;;;;;19.63;56.80;101945.97;5046498;28;20120;-80
2023/05/21 07:04:13;;;;;;;0.00;0.00;;;;;;;19.70;56.69;101958.25;5033924;28;20026;-79
2023/05/21 07:06:39;;;;;;;0.60;0.60;;;;;;;19.79;56.48;101961.47;5044896;28;20025;-78
2023/05/21 07:09:06;;;;;;;0.00;0.00;;;;;;;19.83;56.46;101960.47;5037007;28;20093;-78
2023/05/21 07:11:32;;;;;;;0.00;0.00;;;;;;;19.84;56.45;101963.06;5036597;28;20415;-80
2023/05/21 07:13:59;;;;;;;0.10;0.10;;;;;;;19.85;56.64;101963.94;5038257;28;20038;-79
2023/05/21 07:16:26;;;;;;;0.10;0.10;;;;;;;19.92;56.32;101957.38;5037456;28;20045;-79
2023/05/21 07:18:55;;;;;;;1.40;0.52;;;;;;;19.99;56.09;101958.88;5035008;28;20038;-77
2023/05/21 07:21:21;;;;;;;0.10;0.10;;;;;;;20.04;56.05;101964.06;5045987;28;20042;-78
2023/05/21 07:23:47;;;;;;;0.10;0.10;;;;;;;20.10;55.92;101966.50;5032948;28;20520;-78
2023/05/21 07:26:13;;;;;;;0.10;0.10;;;;;;;20.15;56.00;101960.91;5039242;28;20037;-79
2023/05/21 07:28:39;;;;;;;0.10;0.10;;;;;;;20.15;55.50;101959.09;5045406;28;20030;-77
2023/05/21 07:31:05;;;;;;;0.10;0.10;;;;;;;20.17;55.65;101959.03;5043388;28;20033;-78
2023/05/21 07:33:31;;;;;;;0.10;0.10;;;;;;;20.20;55.34;101967.00;5038977;28;20033;-78
2023/05/21 07:35:57;;;;;;;0.10;0.10;;;;;;;20.26;55.44;101961.34;5042507;28;20154;-78
2023/05/21 07:38:23;;;;;;;0.10;0.10;;;;;;;20.31;55.23;101961.13;5035015;28;20030;-78
2023/05/21 07:40:49;;;;;;;0.10;0.10;;;;;;;20.34;55.23;101964.56;5040061;28;20033;-80
2023/05/21 07:43:16;;;;;;;0.03;0.03;;;;;;;20.33;54.96;101962.81;5054244;28;20025;-79
2023/05/21 07:45:42;;;;;;;0.28;0.28;;;;;;;20.36;54.96;101960.00;5036819;28;20105;-79
2023/05/21 07:48:08;;;;;;;0.17;0.17;;;;;;;20.38;55.08;101964.44;5045432;28;20037;-78
2023/05/21 07:50:34;;;;;;;0.10;0.10;;;;;;;20.38;54.99;101962.63;5046046;28;20029;-80
2023/05/21 07:53:00;;;;;;;0.10;0.10;;;;;;;20.40;54.97;101951.78;5037069;28;20037;-79
2023/05/21 07:55:26;;;;;;;0.10;0.10;;;;;;;20.51;55.02;101944.09;5040551;28;20082;-79
2023/05/21 07:57:52;;;;;;;0.00;0.00;;;;;;;20.59;54.66;101946.47;5042775;28;20034;-80
2023/05/21 08:00:21;;;;;;;0.15;0.15;;;;;;;20.67;54.54;101942.50;5048812;28;20046;-79
2023/05/21 08:02:47;;;;;;;0.10;0.10;;;;;;;20.74;54.40;101937.72;5036859;28;20033;-79
2023/05/21 08:05:15;;;;;;;0.03;0.03;;;;;;;20.82;54.05;101942.75;5036804;28;20034;-79
2023/05/21 08:07:41;;;;;;;0.10;0.10;;;;;;;20.87;54.00;101932.63;5043437;28;20032;-79
2023/05/21 08:10:07;;;;;;;0.30;0.30;;;;;;;20.95;54.15;101935.00;5042355;28;20041;-80
2023/05/21 08:12:34;;;;;;;0.20;0.20;;;;;;;21.03;53.98;101942.72;5042686;28;20037;-78
2023/05/21 08:15:00;;;;;;;0.30;0.30;;;;;;;21.10;53.60;101942.34;5041047;28;20029;-78
2023/05/21 08:17:27;;;;;;;0.10;0.10;;;;;;;21.13;53.18;101941.31;5043547;28;20504;-79
2023/05/21 08:19:53;;;;;;;0.10;0.10;;;;;;;21.17;53.27;101942.91;5034776;28;20387;-80
2023/05/21 08:22:19;;;;;;;3.75;0.85;;;;;;;21.25;53.17;101943.44;5037372;28;20455;-80
2023/05/21 08:24:47;;;;;;;0.10;0.10;;;;;;;21.34;53.00;101940.28;5033878;28;20022;-79
2023/05/21 08:27:14;;;;;;;0.10;0.10;;;;;;;21.45;53.09;101944.31;5034184;28;20034;-79
2023/05/21 08:29:41;;;;;;;0.10;0.10;;;;;;;21.56;52.89;101950.09;5044565;28;20025;-78
2023/05/21 08:32:08;;;;;;;0.13;0.13;;;;;;;21.67;52.57;101948.69;5037991;28;20094;-80
2023/05/21 08:34:35;;;;;;;0.10;0.10;;;;;;;21.69;52.27;101944.94;5030179;28;20125;-79
2023/05/21 08:37:01;;;;;;;0.13;0.13;;;;;;;21.73;52.44;101945.69;5043397;28;20022;-80
2023/05/21 08:39:27;;;;;;;0.08;0.08;;;;;;;21.82;52.53;101937.16;5048637;28;20021;-81
2023/05/21 08:42:06;;;;;;;0.10;0.10;;;;;;;22.01;52.49;101939.78;5040901;28;20029;-78
2023/05/21 08:44:33;;;;;;;0.10;0.10;;;;;;;22.11;51.75;101932.09;5037925;28;20032;-78
2023/05/21 08:47:04;;;;;;;0.10;0.10;;;;;;;22.13;51.40;101935.56;5040685;28;20089;-79
2023/05/21 08:49:33;;;;;;;0.35;0.35;;;;;;;22.12;51.29;101936.53;5029535;28;20057;-80
2023/05/21 08:52:00;;;;;;;0.43;0.40;;;;;;;22.11;51.55;101934.78;5035447;28;20088;-80
2023/05/21 08:54:26;;;;;;;0.40;0.40;;;;;;;22.11;51.56;101932.09;5046506;28;20026;-80
2023/05/21 08:56:54;;;;;;;0.10;0.10;;;;;;;22.12;51.53;101937.41;5050846;28;20021;-79
2023/05/21 08:59:21;;;;;;;0.32;0.32;;;;;;;22.14;51.25;101930.09;5045356;28;20045;-79
2023/05/21 09:01:48;;;;;;;0.10;0.10;;;;;;;22.10;51.05;101933.88;5018410;28;20029;-80
2023/05/21 09:04:15;;;;;;;0.30;0.30;;;;;;;22.11;51.33;101927.53;5048115;28;20036;-80
2023/05/21 09:06:42;;;;;;;0.10;0.10;;;;;;;22.16;51.26;101921.91;5045046;28;20017;-81
2023/05/21 09:09:22;;;;;;;0.10;0.10;;;;;;;22.26;51.02;101923.19;5048237;28;20533;-80
2023/05/21 09:11:49;;;;;;;0.30;0.30;;;;;;;22.28;50.85;101918.59;5047421;28;20036;-80
2023/05/21 09:14:17;;;;;;;0.30;0.30;;;;;;;22.41;50.83;101931.47;5044961;28;20094;-80
2023/05/21 09:16:47;;;;;;;0.13;0.13;;;;;;;22.49;50.19;101918.41;5045156;28;20021;-79
2023/05/21 09:19:13;;;;;;;0.20;0.20;;;;;;;22.57;50.02;101915.31;5047324;28;20022;-80
2023/05/21 09:21:39;;;;;;;0.17;0.17;;;;;;;22.62;49.98;101914.09;5039186;28;20022;-81
2023/05/21 09:24:08;;;;;;;1.13;1.13;;;;;;;22.70;49.67;101904.72;5033019;28;20498;-81
2023/05/21 09:26:34;;;;;;;0.10;0.10;;;;;;;22.77;49.71;101922.34;5033084;28;20029;-81
2023/05/21 09:29:00;;;;;;;0.10;0.10;;;;;;;22.80;49.09;101918.59;5032366;28;20033;-82
2023/05/21 09:31:28;;;;;;;0.10;0.10;;;;;;;22.75;49.09;101908.03;5038496;28;20025;-81
2023/05/21 09:33:55;;;;;;;0.40;0.40;;;;;;;22.67;48.84;101912.97;5034759;28;20442;-81
2023/05/21 09:36:21;;;;;;;0.10;0.10;;;;;;;22.50;48.97;101914.75;5041134;28;20106;-80
2023/05/21 09:38:50;;;;;;;0.10;0.10;;;;;;;22.48;49.36;101911.28;5038007;28;20068;-80
2023/05/21 09:41:17;;;;;;;0.10;0.10;;;;;;;22.50;49.02;101903.97;5042802;28;20033;-80
2023/05/21 09:43:44;;;;;;;0.75;0.75;;;;;;;22.54;49.36;101910.06;5031756;28;20106;-79
2023/05/21 09:46:10;;;;;;;0.13;0.13;;;;;;;22.55;49.36;101907.28;5031369;28;20030;-81
2023/05/21 09:48:40;;;;;;;0.10;0.10;;;;;;;22.52;49.24;101912.88;5034822;28;20041;-80
2023/05/21 09:51:17;;;;;;;0.10;0.10;;;;;;;22.51;49.08;101908.41;5032609;28;20030;-79
2023/05/21 09:53:59;;;;;;;0.15;0.15;;;;;;;22.46;49.55;101897.00;5026932;28;20026;-79
2023/05/21 09:56:28;;;;;;;0.30;0.30;;;;;;;22.49;50.63;101904.06;5040667;28;20049;-80
2023/05/21 09:58:56;;;;;;;0.20;0.20;;;;;;;22.58;49.53;101896.34;5045005;28;20030;-81
2023/05/21 10:01:24;;;;;;;0.20;0.20;;;;;;;22.66;49.50;101893.22;5041205;28;20026;-80
2023/05/21 10:03:55;;;;;;;0.10;0.10;;;;;;;22.72;49.44;101909.09;5041972;28;20056;-80
2023/05/21 10:06:28;;;;;;;0.10;0.10;;;;;;;22.75;49.25;101902.63;5045922;28;20032;-79
2023/05/21 10:08:58;;;;;;;0.20;0.20;;;;;;;22.78;49.12;101902.47;5043034;28;20059;-79
2023/05/21 10:11:29;;;;;;;0.08;0.08;;;;;;;22.76;49.42;101898.97;5038480;28;20028;-81
2023/05/21 10:14:17;;;;;;;0.20;0.20;;;;;;;22.80;49.30;101899.69;5031692;28;20113;-79
2023/05/21 10:16:46;;;;;;;0.65;0.65;;;;;;;22.82;49.10;101887.84;5027471;28;20030;-78
2023/05/21 10:19:14;;;;;;;0.05;0.05;;;;;;;22.89;49.16;101889.25;5036252;28;20060;-79
2023/05/21 10:21:41;;;;;;;0.32;0.32;;;;;;;22.92;49.26;101882.81;5043224;28;20085;-80
2023/05/21 10:24:09;;;;;;;0.20;0.20;;;;;;;22.98;49.42;101889.69;5040946;28;20044;-80
2023/05/21 10:26:37;;;;;;;0.10;0.10;;;;;;;23.01;49.27;101894.94;5038708;28;20467;-80
2023/05/21 10:29:04;;;;;;;0.10;0.10;;;;;;;23.07;48.45;101886.47;5045317;28;20049;-79
2023/05/21 10:31:31;;;;;;;0.10;0.10;;;;;;;23.17;48.95;101887.72;5043719;28;20033;-80
2023/05/21 10:33:59;;;;;;;0.25;0.25;;;;;;;23.24;48.34;101883.72;5042031;28;20075;-81
2023/05/21 10:36:32;;;;;;;0.30;0.30;;;;;;;23.27;47.98;101888.06;5037210;28;20084;-81
2023/05/21 10:39:00;;;;;;;0.28;0.28;;;;;;;23.33;48.22;101885.00;5043774;28;20032;-80
2023/05/21 10:41:34;;;;;;;1.10;1.00;;;;;;;23.37;48.04;101874.91;5046473;28;20029;-81
2023/05/21 10:47:31;;;;;;;0.17;0.17;;;;;;;23.46;48.19;101874.34;5107282;27;1549017;-81
2023/05/21 10:55:47;;;;;;;2.30;1.17;;;;;;;23.59;47.91;101877.22;5124767;27;20154;-81
2023/05/21 11:01:04;;;;;;;1.65;0.52;;;;;;;23.61;47.62;101864.47;5103956;27;20405;-82
2023/05/21 11:03:32;;;;;;;0.10;0.10;;;;;;;23.70;47.68;101871.16;5088674;28;20058;-81
2023/05/21 11:06:00;;;;;;;0.20;0.20;;;;;;;23.72;46.67;101859.28;5101139;28;20277;-82
2023/05/21 11:08:30;;;;;;;0.10;0.10;;;;;;;23.81;47.23;101844.31;5101894;28;20024;-80
2023/05/21 11:10:57;;;;;;;1.25;0.60;;;;;;;23.82;47.12;101851.47;5086947;28;20021;-81
2023/05/21 11:13:25;;;;;;;0.08;0.08;;;;;;;23.80;46.87;101848.03;5090903;28;20445;-83
2023/05/21 11:21:13;;;;;;;0.10;0.10;;;;;;;23.82;47.17;101848.78;5073942;27;1906511;-81
2023/05/21 11:24:01;;;;;;;0.30;0.30;;;;;;;23.99;47.14;101844.19;5122438;28;20036;-83
2023/05/21 11:26:51;;;;;;;0.30;0.30;;;;;;;24.09;47.18;101837.28;5117743;28;20140;-83
2023/05/21 11:29:18;;;;;;;0.10;0.10;;;;;;;24.20;46.76;101842.00;5111166;28;20046;-81
2023/05/21 11:31:46;;;;;;;0.30;0.30;;;;;;;24.26;46.50;101835.34;5118542;28;20028;-82
2023/05/21 11:34:27;;;;;;;0.57;0.57;;;;;;;24.36;46.46;101831.09;5113223;28;20040;-82
2023/05/21 11:39:54;;;;;;;0.10;0.10;;;;;;;24.45;46.41;101817.00;5108301;27;1197182;-82
2023/05/21 11:42:40;;;;;;;0.73;0.73;;;;;;;24.52;46.43;101840.03;5132715;27;20027;-82
2023/05/21 11:45:07;;;;;;;0.10;0.10;;;;;;;24.45;46.40;101832.34;5121834;27;20062;-82